createdAt,value
2022-08-26T00:02:04.948Z,100696.44
2022-08-26T00:04:52.265Z,100703.66
2022-08-26T00:07:39.927Z,100706.44
2022-08-26T00:10:30.902Z,100709.47
2022-08-26T00:13:19.531Z,100711.13
2022-08-26T00:16:08.035Z,100716.09
2022-08-26T00:18:59.213Z,100713.59
2022-08-26T00:21:48.706Z,100716.38
2022-08-26T00:24:36.889Z,100705.31
2022-08-26T00:27:25.112Z,100723.25
2022-08-26T00:30:22.747Z,100716.06
2022-08-26T00:33:11.835Z,100724.09
2022-08-26T00:35:59.197Z,100723.50
2022-08-26T00:38:46.552Z,100720.72
2022-08-26T00:41:35.209Z,100723.22
2022-08-26T00:44:23.074Z,100732.25
2022-08-26T00:47:22.564Z,100726.66
2022-08-26T00:50:13.786Z,100728.25
2022-08-26T00:53:21.350Z,100724.09
2022-08-26T00:56:29.563Z,100725.97
2022-08-26T00:59:17.832Z,100734.47
2022-08-26T01:02:05.331Z,100746.88
2022-08-26T01:04:56.419Z,100734.19
2022-08-26T01:07:44.509Z,100738.00
2022-08-26T01:10:31.854Z,100728.53
2022-08-26T01:13:20.162Z,100742.34
2022-08-26T01:16:12.690Z,100749.53
2022-08-26T01:19:15.690Z,100742.03
2022-08-26T01:22:10.212Z,100741.72
2022-08-26T01:25:03.565Z,100759.97
2022-08-26T01:27:52.069Z,100752.16
2022-08-26T01:30:40.740Z,100765.13
2022-08-26T01:33:52.380Z,100752.13
2022-08-26T01:36:40.588Z,100763.72
2022-08-26T01:39:32.173Z,100773.66
2022-08-26T01:42:22.318Z,100767.56
2022-08-26T01:45:15.306Z,100779.09
2022-08-26T01:48:08.907Z,100776.84
2022-08-26T01:50:58.456Z,100788.13
2022-08-26T01:53:46.508Z,100781.50
2022-08-26T01:56:36.475Z,100778.06
2022-08-26T01:59:25.016Z,100780.56
2022-08-26T02:02:12.976Z,100781.72
2022-08-26T02:05:05.818Z,100789.06
2022-08-26T02:07:53.364Z,100791.31
2022-08-26T02:10:41.147Z,100782.75
2022-08-26T02:13:31.443Z,100792.66
2022-08-26T02:16:21.992Z,100792.38
2022-08-26T02:19:16.901Z,100798.34
2022-08-26T02:22:08.293Z,100792.00
2022-08-26T02:24:58.929Z,100798.59
2022-08-26T02:27:47.585Z,100793.88
2022-08-26T02:30:34.992Z,100802.63
2022-08-26T02:33:23.072Z,100792.38
2022-08-26T02:36:10.493Z,100797.88
2022-08-26T02:38:59.470Z,100796.16
2022-08-26T02:41:46.856Z,100800.00
2022-08-26T02:44:35.699Z,100804.41
2022-08-26T02:47:24.867Z,100809.88
2022-08-26T02:50:12.305Z,100802.13
2022-08-26T02:52:59.597Z,100803.41
2022-08-26T02:55:49.411Z,100805.91
2022-08-26T02:58:37.248Z,100799.22
2022-08-26T03:01:35.373Z,100801.00
2022-08-26T03:04:22.744Z,100798.75
2022-08-26T03:07:13.260Z,100797.56
2022-08-26T03:10:00.765Z,100795.88
2022-08-26T03:12:48.266Z,100794.75
2022-08-26T03:15:35.545Z,100797.56
2022-08-26T03:18:24.596Z,100792.06
2022-08-26T03:21:17.793Z,100799.56
2022-08-26T03:24:05.889Z,100799.31
2022-08-26T03:26:53.313Z,100791.56
2022-08-26T03:29:59.612Z,100798.22
2022-08-26T03:32:46.853Z,100793.78
2022-08-26T03:35:34.961Z,100793.25
2022-08-26T03:38:26.692Z,100789.72
2022-08-26T03:41:14.092Z,100792.22
2022-08-26T03:44:02.410Z,100795.53
2022-08-26T03:46:50.850Z,100799.38
2022-08-26T03:49:38.371Z,100801.09
2022-08-26T03:52:26.594Z,100797.84
2022-08-26T03:55:16.441Z,100802.25
2022-08-26T03:58:05.006Z,100804.16
2022-08-26T04:00:55.557Z,100800.00
2022-08-26T04:04:00.020Z,100802.50
2022-08-26T04:06:48.049Z,100807.16
2022-08-26T04:09:35.479Z,100801.09
2022-08-26T04:12:23.632Z,100806.28
2022-08-26T04:15:15.110Z,100803.84
2022-08-26T04:18:02.371Z,100800.34
2022-08-26T04:20:50.526Z,100801.09
2022-08-26T04:23:47.560Z,100805.56
2022-08-26T04:26:39.554Z,100800.50
2022-08-26T04:29:30.189Z,100797.72
2022-08-26T04:32:17.499Z,100798.03
2022-08-26T04:35:05.551Z,100796.09
2022-08-26T04:37:53.529Z,100797.28
2022-08-26T04:40:46.695Z,100797.75
2022-08-26T04:43:34.286Z,100809.91
2022-08-26T04:46:24.350Z,100807.75
2022-08-26T04:49:12.718Z,100809.38
2022-08-26T04:52:00.026Z,100816.00
2022-08-26T04:54:47.308Z,100816.00
2022-08-26T04:57:35.318Z,100819.03
2022-08-26T05:00:23.096Z,100820.41
2022-08-26T05:03:10.765Z,100823.69
2022-08-26T05:05:58.582Z,100823.69
2022-08-26T05:08:46.667Z,100823.69
2022-08-26T05:11:34.055Z,100827.56
2022-08-26T05:14:23.245Z,100814.34
2022-08-26T05:17:10.660Z,100816.31
2022-08-26T05:20:02.517Z,100820.28
2022-08-26T05:22:51.287Z,100811.06
2022-08-26T05:25:41.835Z,100817.47
2022-08-26T05:28:29.928Z,100816.63
2022-08-26T05:31:19.910Z,100826.56
2022-08-26T05:34:07.445Z,100820.28
2022-08-26T05:36:55.918Z,100820.28
2022-08-26T05:39:43.561Z,100823.41
2022-08-26T05:42:38.562Z,100823.75
2022-08-26T05:45:26.480Z,100830.78
2022-08-26T05:48:16.872Z,100828.81
2022-08-26T05:51:08.480Z,100828.34
2022-08-26T05:53:56.249Z,100827.56
2022-08-26T05:56:43.497Z,100833.59
2022-08-26T05:59:33.859Z,100836.66
2022-08-26T06:02:24.781Z,100830.25
2022-08-26T06:05:13.104Z,100843.50
2022-08-26T06:08:14.108Z,100842.19
2022-08-26T06:11:05.553Z,100844.75
2022-08-26T06:14:03.057Z,100847.97
2022-08-26T06:16:51.376Z,100846.31
2022-08-26T06:19:38.666Z,100844.81
2022-08-26T06:22:47.262Z,100849.09
2022-08-26T06:25:38.513Z,100855.53
2022-08-26T06:28:26.573Z,100852.50
2022-08-26T06:31:15.303Z,100838.78
2022-08-26T06:34:08.593Z,100857.25
2022-08-26T06:37:06.379Z,100835.97
2022-08-26T06:39:53.917Z,100853.09
2022-08-26T06:42:41.257Z,100857.84
2022-08-26T06:45:28.558Z,100845.78
2022-08-26T06:48:18.957Z,100858.78
2022-08-26T06:51:15.228Z,100860.44
2022-08-26T06:54:04.536Z,100858.94
2022-08-26T06:56:52.249Z,100861.72
2022-08-26T06:59:39.515Z,100866.13
2022-08-26T07:02:28.597Z,100868.34
2022-08-26T07:05:16.176Z,100862.84
2022-08-26T07:08:03.740Z,100860.34
2022-08-26T07:10:51.142Z,100863.63
2022-08-26T07:13:43.103Z,100858.09
2022-08-26T07:16:30.685Z,100860.06
2022-08-26T07:19:30.430Z,100863.88
2022-08-26T07:22:18.709Z,100867.28
2022-08-26T07:25:08.639Z,100867.63
2022-08-26T07:27:55.904Z,100876.53
2022-08-26T07:30:43.406Z,100874.91
2022-08-26T07:33:30.736Z,100874.16
2022-08-26T07:36:19.132Z,100873.59
2022-08-26T07:39:06.796Z,100871.94
2022-08-26T07:41:54.277Z,100872.78
2022-08-26T07:44:43.559Z,100889.56
2022-08-26T07:47:31.004Z,100887.03
2022-08-26T07:50:18.339Z,100889.47
2022-08-26T07:53:05.711Z,100852.34
2022-08-26T07:55:56.154Z,100895.59
2022-08-26T07:58:45.743Z,100896.44
2022-08-26T08:01:35.527Z,100889.63
2022-08-26T08:04:27.069Z,100885.22
2022-08-26T08:07:14.610Z,100892.13
2022-08-26T08:10:04.562Z,100890.47
2022-08-26T08:12:57.515Z,100888.53
2022-08-26T08:15:46.141Z,100895.47
2022-08-26T08:18:33.550Z,100896.53
2022-08-26T08:21:21.760Z,100887.66
2022-08-26T08:24:11.560Z,100899.22
2022-08-26T08:27:00.432Z,100895.34
2022-08-26T08:29:47.862Z,100870.31
2022-08-26T08:32:39.883Z,100901.34
2022-08-26T08:35:27.405Z,100905.66
2022-08-26T08:38:15.473Z,100901.69
2022-08-26T08:41:05.602Z,100903.91
2022-08-26T08:43:53.348Z,100905.34
2022-08-26T08:46:42.819Z,100907.28
2022-08-26T08:49:32.160Z,100903.91
2022-08-26T08:52:35.060Z,100906.41
2022-08-26T08:55:30.731Z,100904.28
2022-08-26T08:58:21.777Z,100909.63
2022-08-26T09:01:17.437Z,100900.25
2022-08-26T09:04:17.280Z,100908.69
2022-08-26T09:07:08.770Z,100908.44
2022-08-26T09:10:00.888Z,100915.41
2022-08-26T09:12:49.300Z,100906.63
2022-08-26T09:16:01.608Z,100909.47
2022-08-26T09:18:48.877Z,100905.09
2022-08-26T09:21:37.388Z,100916.28
2022-08-26T09:24:28.402Z,100918.50
2022-08-26T09:27:41.917Z,100913.63
2022-08-26T09:30:33.153Z,100914.72
2022-08-26T09:33:28.393Z,100911.44
2022-08-26T09:36:15.673Z,100922.75
2022-08-26T09:39:04.418Z,100916.97
2022-08-26T09:42:11.795Z,100912.41
2022-08-26T09:45:03.485Z,100914.66
2022-08-26T09:47:51.203Z,100919.34
2022-08-26T09:50:51.278Z,100921.03
2022-08-26T09:53:52.387Z,100921.31
2022-08-26T09:56:40.147Z,100917.75
2022-08-26T09:59:30.753Z,100922.16
2022-08-26T10:02:29.702Z,100916.38
2022-08-26T10:05:29.658Z,100895.38
2022-08-26T10:08:38.471Z,100915.59
2022-08-26T10:11:42.447Z,100907.88
2022-08-26T10:17:41.309Z,100915.03
2022-08-26T10:20:37.941Z,100907.56
2022-08-26T10:23:32.654Z,100920.91
2022-08-26T10:26:41.274Z,100919.53
2022-08-26T10:29:39.166Z,100915.44
2022-08-26T10:32:35.185Z,100916.09
2022-08-26T10:35:26.905Z,100910.78
2022-08-26T10:38:18.390Z,100912.75
2022-08-26T10:41:15.853Z,100917.22
2022-08-26T10:44:08.365Z,100912.22
2022-08-26T10:47:09.022Z,100913.94
2022-08-26T10:50:00.553Z,100905.97
2022-08-26T10:53:13.853Z,100904.34
2022-08-26T10:56:01.975Z,100899.00
2022-08-26T10:59:26.372Z,100909.00
2022-08-26T11:02:39.668Z,100903.88
2022-08-26T11:05:26.925Z,100900.78
2022-08-26T11:08:20.846Z,100895.84
2022-08-26T11:11:08.294Z,100891.34
2022-08-26T11:14:05.494Z,100895.56
2022-08-26T11:16:56.833Z,100897.22
2022-08-26T11:20:09.163Z,100891.75
2022-08-26T11:23:13.006Z,100885.69
2022-08-26T11:26:35.383Z,100883.53
2022-08-26T11:30:15.685Z,100895.94
2022-08-26T11:33:07.083Z,100888.50
2022-08-26T11:35:54.941Z,100890.13
2022-08-26T11:38:42.641Z,100894.03
2022-08-26T11:41:31.245Z,100889.38
2022-08-26T11:44:26.173Z,100879.13
2022-08-26T11:47:16.337Z,100879.13
2022-08-26T11:50:12.509Z,100874.16
2022-08-26T11:53:06.280Z,100879.13
2022-08-26T11:55:56.908Z,100886.91
2022-08-26T11:58:47.666Z,100881.34
2022-08-26T12:01:36.247Z,100884.94
2022-08-26T12:04:30.295Z,100890.19
2022-08-26T12:07:24.410Z,100884.09
2022-08-26T12:10:26.677Z,100876.91
2022-08-26T12:13:23.476Z,100882.44
2022-08-26T12:16:12.454Z,100882.69
2022-08-26T12:19:00.085Z,100881.91
2022-08-26T12:21:48.864Z,100878.56
2022-08-26T12:24:42.252Z,100872.75
2022-08-26T12:27:37.174Z,100885.47
2022-08-26T12:30:26.296Z,100864.75
2022-08-26T12:33:23.082Z,100877.47
2022-08-26T12:36:12.086Z,100893.53
2022-08-26T12:39:30.856Z,100888.56
2022-08-26T12:42:38.489Z,100891.59
2022-08-26T12:45:31.364Z,100896.31
2022-08-26T12:48:29.857Z,100883.84
2022-08-26T12:51:25.121Z,100883.56
2022-08-26T12:54:15.893Z,100881.88
2022-08-26T12:57:11.830Z,100861.41
2022-08-26T13:00:26.271Z,100873.06
2022-08-26T13:03:33.753Z,100873.59
2022-08-26T13:06:22.072Z,100869.72
2022-08-26T13:09:09.262Z,100880.50
2022-08-26T13:11:58.493Z,100873.88
2022-08-26T13:14:46.113Z,100868.63
2022-08-26T13:17:35.768Z,100869.44
2022-08-26T13:20:23.217Z,100881.91
2022-08-26T13:23:10.778Z,100872.50
2022-08-26T13:25:59.825Z,100868.91
2022-08-26T13:28:48.628Z,100863.06
2022-08-26T13:31:49.394Z,100862.81
2022-08-26T13:34:37.621Z,100853.13
2022-08-26T13:37:34.308Z,100861.13
2022-08-26T13:40:22.165Z,100858.66
2022-08-26T13:43:10.926Z,100863.06
2022-08-26T13:45:58.275Z,100852.56
2022-08-26T13:48:45.581Z,100859.47
2022-08-26T13:51:33.563Z,100855.31
2022-08-26T13:54:21.125Z,100856.16
2022-08-26T13:57:09.065Z,100861.69
2022-08-26T13:59:58.812Z,100860.31
2022-08-26T14:02:46.829Z,100848.13
2022-08-26T14:05:34.177Z,100867.50
2022-08-26T14:08:22.232Z,100859.78
2022-08-26T14:11:09.885Z,100871.94
2022-08-26T14:13:57.160Z,100859.78
2022-08-26T14:16:58.966Z,100863.63
2022-08-26T14:19:49.683Z,100859.75
2022-08-26T14:22:43.709Z,100866.94
2022-08-26T14:25:45.593Z,100861.97
2022-08-26T14:28:32.861Z,100852.84
2022-08-26T14:31:20.702Z,100852.00
2022-08-26T14:34:08.105Z,100855.06
2022-08-26T14:36:55.357Z,100847.88
2022-08-26T14:39:42.725Z,100840.13
2022-08-26T14:42:31.592Z,100849.81
2022-08-26T14:45:23.166Z,100843.16
2022-08-26T14:48:10.813Z,100858.09
2022-08-26T14:50:58.091Z,100848.16
2022-08-26T14:54:03.814Z,100851.47
2022-08-26T14:56:54.556Z,100851.72
2022-08-26T14:59:49.749Z,100854.50
2022-08-26T15:02:38.756Z,100844.81
2022-08-26T15:05:26.125Z,100848.69
2022-08-26T15:08:13.367Z,100848.97
2022-08-26T15:11:00.703Z,100847.56
2022-08-26T15:13:48.172Z,100845.94
2022-08-26T15:16:38.041Z,100857.53
2022-08-26T15:19:26.737Z,100847.03
2022-08-26T15:22:14.018Z,100844.81
2022-08-26T15:25:01.851Z,100832.09
2022-08-26T15:27:49.122Z,100842.91
2022-08-26T15:30:36.441Z,100847.03
2022-08-26T15:33:23.710Z,100849.53
2022-08-26T15:36:11.526Z,100834.31
2022-08-26T15:39:00.569Z,100834.84
2022-08-26T15:41:47.942Z,100832.09
2022-08-26T15:44:36.539Z,100833.75
2022-08-26T15:47:24.285Z,100830.38
2022-08-26T15:50:11.701Z,100821.84
2022-08-26T15:53:01.264Z,100810.47
2022-08-26T15:55:49.009Z,100825.97
2022-08-26T15:58:37.038Z,100823.75
2022-08-26T16:01:27.724Z,100827.31
2022-08-26T16:04:15.390Z,100822.63
2022-08-26T16:07:03.321Z,100818.19
2022-08-26T16:09:54.248Z,100826.50
2022-08-26T16:12:42.493Z,100822.59
2022-08-26T16:15:32.259Z,100819.53
2022-08-26T16:18:20.333Z,100820.88
2022-08-26T16:21:20.324Z,100822.56
2022-08-26T16:24:07.847Z,100816.22
2022-08-26T16:26:55.118Z,100795.16
2022-08-26T16:29:42.417Z,100824.78
2022-08-26T16:32:31.353Z,100815.91
2022-08-26T16:35:18.752Z,100817.25
2022-08-26T16:38:06.556Z,100828.81
2022-08-26T16:40:53.977Z,100840.03
2022-08-26T16:43:41.301Z,100837.56
2022-08-26T16:46:29.030Z,100841.63
2022-08-26T16:49:16.410Z,100838.81
2022-08-26T16:52:04.438Z,100833.56
2022-08-26T16:54:53.014Z,100848.00
2022-08-26T16:57:42.985Z,100842.41
2022-08-26T17:00:32.990Z,100852.63
2022-08-26T17:03:20.475Z,100850.13
2022-08-26T17:06:08.385Z,100853.41
2022-08-26T17:08:55.717Z,100843.50
2022-08-26T17:11:43.680Z,100854.59
2022-08-26T17:14:31.290Z,100862.56
2022-08-26T17:17:18.557Z,100861.69
2022-08-26T17:20:09.690Z,100859.72
2022-08-26T17:22:57.073Z,100861.56
2022-08-26T17:25:44.407Z,100867.88
2022-08-26T17:28:32.217Z,100878.84
2022-08-26T17:31:20.876Z,100880.44
2022-08-26T17:34:08.313Z,100890.09
2022-08-26T17:36:55.637Z,100880.53
2022-08-26T17:39:44.049Z,100888.31
2022-08-26T17:42:31.860Z,100888.44
2022-08-26T17:48:08.352Z,100884.13
2022-08-26T17:50:56.440Z,100889.34
2022-08-26T17:53:43.773Z,100886.59
2022-08-26T17:56:31.165Z,100887.22
2022-08-26T17:59:18.492Z,100857.81
2022-08-26T18:02:06.219Z,100895.59
2022-08-26T18:04:53.462Z,100891.19
2022-08-26T18:07:44.000Z,100883.66
2022-08-26T18:10:32.046Z,100887.22
2022-08-26T18:13:19.324Z,100886.66
2022-08-26T18:16:06.836Z,100880.50
2022-08-26T18:18:54.383Z,100899.03
2022-08-26T18:21:41.637Z,100895.25
2022-08-26T18:24:30.436Z,100888.13
2022-08-26T18:27:17.692Z,100895.88
2022-08-26T18:30:09.807Z,100892.56
2022-08-26T18:33:00.217Z,100893.19
2022-08-26T18:35:47.516Z,100886.00
2022-08-26T18:38:34.825Z,100886.53
2022-08-26T18:41:24.766Z,100882.41
2022-08-26T18:44:14.114Z,100890.06
2022-08-26T18:47:01.452Z,100893.63
2022-08-26T18:49:48.693Z,100900.56
2022-08-26T18:52:36.282Z,100890.25
2022-08-26T18:55:23.643Z,100904.28
2022-08-26T18:58:11.579Z,100905.75
2022-08-26T19:00:59.260Z,100901.53
2022-08-26T19:03:48.033Z,100908.34
2022-08-26T19:06:35.771Z,100905.00
2022-08-26T19:09:26.070Z,100907.69
2022-08-26T19:12:13.349Z,100909.94
2022-08-26T19:15:02.438Z,100913.75
2022-08-26T19:17:50.212Z,100912.56
2022-08-26T19:20:46.392Z,100924.44
2022-08-26T19:23:34.434Z,100924.16
2022-08-26T19:26:22.047Z,100916.94
2022-08-26T19:29:09.490Z,100916.94
2022-08-26T19:31:56.805Z,100914.13
2022-08-26T19:34:44.470Z,100913.06
2022-08-26T19:37:32.715Z,100917.94
2022-08-26T19:40:20.019Z,100920.69
2022-08-26T19:43:08.389Z,100915.69
2022-08-26T19:45:55.777Z,100916.28
2022-08-26T19:48:44.433Z,100916.78
2022-08-26T19:51:33.854Z,100919.13
2022-08-26T19:54:24.361Z,100913.50
2022-08-26T19:57:11.691Z,100915.78
2022-08-26T19:59:59.690Z,100918.47
2022-08-26T20:02:47.469Z,100916.66
2022-08-26T20:05:35.238Z,100922.50
2022-08-26T20:08:22.862Z,100921.41
2022-08-26T20:11:14.511Z,100922.69
2022-08-26T20:14:02.142Z,100919.38
2022-08-26T20:16:49.534Z,100926.88
2022-08-26T20:19:55.475Z,100920.44
2022-08-26T20:22:43.132Z,100923.34
2022-08-26T20:25:32.473Z,100928.53
2022-08-26T20:28:19.728Z,100923.59
2022-08-26T20:31:06.987Z,100923.00
2022-08-26T20:33:56.077Z,100925.50
2022-08-26T20:36:44.496Z,100926.94
2022-08-26T20:39:31.752Z,100932.97
2022-08-26T20:42:20.029Z,100937.97
2022-08-26T20:45:08.642Z,100935.72
2022-08-26T20:47:55.905Z,100934.03
2022-08-26T20:50:43.195Z,100937.28
2022-08-26T20:53:31.304Z,100944.22
2022-08-26T20:56:26.180Z,100946.22
2022-08-26T20:59:14.126Z,100942.72
2022-08-26T21:02:01.449Z,100938.88
2022-08-26T21:04:48.782Z,100937.53
2022-08-26T21:07:36.075Z,100935.06
2022-08-26T21:10:23.511Z,100938.31
2022-08-26T21:13:11.523Z,100940.72
2022-08-26T21:16:02.026Z,100941.06
2022-08-26T21:18:49.877Z,100941.47
2022-08-26T21:21:37.477Z,100949.19
2022-08-26T21:24:24.769Z,100946.44
2022-08-26T21:27:12.044Z,100934.41
2022-08-26T21:29:59.352Z,100947.44
2022-08-26T21:32:46.641Z,100938.84
2022-08-26T21:35:34.223Z,100942.94
2022-08-26T21:38:22.149Z,100937.91
2022-08-26T21:41:14.501Z,100937.41
2022-08-26T21:44:04.067Z,100942.94
2022-08-26T21:46:51.293Z,100941.28
2022-08-26T21:49:38.950Z,100947.59
2022-08-26T21:52:26.461Z,100950.44
2022-08-26T21:55:13.751Z,100944.09
2022-08-26T21:58:01.125Z,100948.03
2022-08-26T22:00:49.588Z,100945.59
2022-08-26T22:03:46.638Z,100942.50
2022-08-26T22:06:43.132Z,100937.84
2022-08-26T22:09:31.553Z,100955.03
2022-08-26T22:12:18.974Z,100951.94
2022-08-26T22:15:06.933Z,100962.63
2022-08-26T22:17:54.169Z,100955.34
2022-08-26T22:20:41.777Z,100954.59
2022-08-26T22:23:29.312Z,100961.00
2022-08-26T22:26:25.532Z,100967.78
2022-08-26T22:29:13.581Z,100957.88
2022-08-26T22:32:01.475Z,100968.19
2022-08-26T22:34:48.861Z,100966.06
2022-08-26T22:37:36.130Z,100963.63
2022-08-26T22:40:23.530Z,100962.81
2022-08-26T22:43:12.021Z,100971.81
2022-08-26T22:45:59.360Z,100976.78
2022-08-26T22:48:46.873Z,100978.69
2022-08-26T22:51:39.236Z,100977.63
2022-08-26T22:54:26.609Z,100971.94
2022-08-26T22:57:13.882Z,100972.50
2022-08-26T23:00:01.177Z,100976.22
2022-08-26T23:02:48.449Z,100961.06
2022-08-26T23:05:35.749Z,100953.06
2022-08-26T23:08:24.602Z,100962.88
2022-08-26T23:11:12.927Z,100963.47
2022-08-26T23:14:05.035Z,100960.00
2022-08-26T23:16:53.749Z,100966.72
2022-08-26T23:19:41.243Z,100962.88
2022-08-26T23:22:28.562Z,100972.94
2022-08-26T23:25:15.905Z,100967.44
2022-08-26T23:28:03.926Z,100962.41
2022-08-26T23:30:51.281Z,100970.75
2022-08-26T23:33:57.217Z,100971.97
2022-08-26T23:36:46.318Z,100974.72
2022-08-26T23:39:35.968Z,100972.22
2022-08-26T23:42:23.257Z,100976.88
2022-08-26T23:45:12.700Z,100969.59
2022-08-26T23:48:00.034Z,100976.41
2022-08-26T23:51:05.919Z,100966.72
2022-08-26T23:53:53.218Z,100968.59
2022-08-26T23:56:40.849Z,100972.69
2022-08-26T23:59:28.196Z,100966.91
